Time;durP1;ratioP1;P1;durP2;ratioP2;P2;SDS_P1;SDS_P2;PMS_P1;PMS_P2;Temp;Humidity;BMP_temperature;BMP_pressure;BME280_temperature;BME280_humidity;BME280_pressure;Samples;Min_cycle;Max_cycle;Signal;HPM_P1;HPM_P2
2022/06/25 00:00:33;;;;;;;6.43;6.03;;;16.80;99.90;;;;;;5015546;28;20669;-66
2022/06/25 00:02:59;;;;;;;8.30;7.50;;;16.80;99.90;;;;;;5014556;28;20182;-68
2022/06/25 00:05:27;;;;;;;8.00;7.33;;;16.90;99.90;;;;;;5026428;28;20253;-66
2022/06/25 00:07:56;;;;;;;7.90;7.40;;;16.90;99.90;;;;;;5034125;28;20253;-67
2022/06/25 00:10:23;;;;;;;7.20;6.77;;;16.90;99.90;;;;;;5020882;28;20208;-66
2022/06/25 00:12:49;;;;;;;8.13;7.50;;;17.00;99.90;;;;;;5013261;28;20183;-66
2022/06/25 00:15:15;;;;;;;10.47;9.77;;;17.00;99.90;;;;;;5024065;28;20727;-66
2022/06/25 00:17:40;;;;;;;8.30;7.80;;;17.00;99.90;;;;;;5034430;28;20262;-66
2022/06/25 00:20:07;;;;;;;8.83;8.00;;;17.00;99.90;;;;;;5023929;28;20212;-67
2022/06/25 00:22:33;;;;;;;7.63;7.13;;;17.00;99.90;;;;;;5014409;28;20184;-66
2022/06/25 00:24:59;;;;;;;7.83;7.17;;;17.00;99.90;;;;;;5015175;28;20210;-67
2022/06/25 00:27:25;;;;;;;8.17;7.57;;;17.00;99.90;;;;;;5014027;28;20207;-66
2022/06/25 00:29:51;;;;;;;8.33;7.67;;;17.00;99.90;;;;;;5033779;28;20199;-67
2022/06/25 00:32:16;;;;;;;8.00;7.50;;;17.00;99.90;;;;;;5033883;28;20199;-67
2022/06/25 00:34:43;;;;;;;8.67;8.17;;;17.10;99.90;;;;;;5015259;28;20207;-67
2022/06/25 00:37:09;;;;;;;8.53;8.03;;;17.10;99.90;;;;;;5012562;28;20659;-67
2022/06/25 00:39:36;;;;;;;8.63;7.93;;;17.10;99.90;;;;;;5030301;28;20203;-67
2022/06/25 00:42:09;;;;;;;9.63;7.47;;;17.10;99.90;;;;;;5033658;28;20179;-67
2022/06/25 00:44:34;;;;;;;8.77;7.30;;;17.00;99.90;;;;;;5017632;28;20266;-67
2022/06/25 00:47:01;;;;;;;7.50;7.00;;;17.00;99.90;;;;;;5012480;28;20235;-67
2022/06/25 00:49:26;;;;;;;7.73;7.00;;;16.90;99.90;;;;;;5027408;28;20262;-67
2022/06/25 00:51:53;;;;;;;7.13;6.50;;;16.90;99.90;;;;;;5033300;28;20270;-67
2022/06/25 00:54:20;;;;;;;9.53;7.80;;;16.80;99.90;;;;;;5031530;28;20187;-67
2022/06/25 00:56:51;;;;;;;8.60;7.30;;;16.70;99.90;;;;;;5033436;28;20218;-67
2022/06/25 00:59:26;;;;;;;9.37;6.90;;;16.70;99.90;;;;;;5019162;28;20183;-67
2022/06/25 01:01:52;;;;;;;9.27;6.90;;;16.70;99.90;;;;;;5012503;28;20192;-67
2022/06/25 01:04:17;;;;;;;8.10;7.47;;;16.60;99.90;;;;;;5026251;28;20258;-67
2022/06/25 01:06:43;;;;;;;8.00;7.40;;;16.60;99.90;;;;;;5033115;28;20175;-67
2022/06/25 01:09:09;;;;;;;8.70;7.70;;;16.60;99.90;;;;;;5020031;28;20282;-67
2022/06/25 01:11:35;;;;;;;12.10;7.93;;;16.60;99.90;;;;;;5013388;28;20279;-67
2022/06/25 01:14:09;;;;;;;9.00;8.23;;;16.60;99.90;;;;;;5022177;28;20184;-67
2022/06/25 01:16:35;;;;;;;12.40;8.63;;;16.60;99.90;;;;;;5033361;28;20647;-67
2022/06/25 01:19:07;;;;;;;8.53;7.87;;;16.70;99.90;;;;;;5030076;28;20238;-67
2022/06/25 01:21:33;;;;;;;9.60;8.60;;;16.70;99.90;;;;;;5032766;28;20218;-67
2022/06/25 01:23:59;;;;;;;9.77;8.00;;;16.70;99.90;;;;;;5024383;28;20246;-67
2022/06/25 01:26:25;;;;;;;8.40;7.63;;;16.70;99.90;;;;;;5013160;28;20626;-67
2022/06/25 01:28:51;;;;;;;8.27;7.67;;;16.70;99.90;;;;;;5018902;28;20269;-67
2022/06/25 01:31:16;;;;;;;8.67;8.03;;;16.70;99.90;;;;;;5032633;28;20577;-67
2022/06/25 01:33:42;;;;;;;8.67;7.77;;;16.70;99.90;;;;;;5027835;28;20179;-67
2022/06/25 01:36:08;;;;;;;9.87;8.13;;;16.70;99.90;;;;;;5012853;28;20688;-67
2022/06/25 01:38:33;;;;;;;8.57;7.87;;;16.70;99.90;;;;;;5013808;28;20673;-67
2022/06/25 01:40:59;;;;;;;8.77;7.90;;;16.70;99.90;;;;;;5032471;28;20253;-67
2022/06/25 01:43:24;;;;;;;7.10;6.50;;;16.60;99.90;;;;;;5031409;28;20202;-67
2022/06/25 01:45:50;;;;;;;8.83;6.97;;;16.60;99.90;;;;;;5012339;28;20180;-67
2022/06/25 01:48:15;;;;;;;8.97;6.83;;;16.60;99.90;;;;;;5012654;28;20199;-67
2022/06/25 01:50:41;;;;;;;9.67;8.10;;;16.60;99.90;;;;;;5030872;28;20238;-67
2022/06/25 01:53:07;;;;;;;9.83;8.37;;;16.60;99.90;;;;;;5032307;28;20172;-67
2022/06/25 01:55:33;;;;;;;8.97;8.07;;;16.60;99.90;;;;;;5015129;28;20258;-67
2022/06/25 01:57:58;;;;;;;8.17;7.37;;;16.60;99.90;;;;;;5012417;28;20188;-67
2022/06/25 02:00:27;;;;;;;8.73;8.07;;;16.60;99.90;;;;;;5027159;28;20203;-67
2022/06/25 02:02:53;;;;;;;9.97;9.03;;;16.60;99.90;;;;;;5032148;28;20179;-67
2022/06/25 02:05:56;;;;;;;9.63;8.73;;;16.60;99.90;;;;;;5028814;28;20226;-67
2022/06/25 02:08:08;;;;;;;9.37;8.47;;;16.50;99.90;;;;;;5031827;28;20203;-67
2022/06/25 02:10:34;;;;;;;8.83;8.20;;;16.50;99.90;;;;;;5016622;28;20230;-67
2022/06/25 02:13:00;;;;;;;8.77;7.80;;;16.50;99.90;;;;;;5013633;28;20203;-67
2022/06/25 02:15:26;;;;;;;11.53;7.37;;;16.50;99.90;;;;;;5030322;28;20537;-67
2022/06/25 02:17:52;;;;;;;9.77;7.30;;;16.50;99.90;;;;;;5030236;28;20180;-67
2022/06/25 02:20:17;;;;;;;7.63;6.93;;;16.50;99.90;;;;;;5011908;28;20214;-67
2022/06/25 02:22:43;;;;;;;7.37;6.90;;;16.50;99.90;;;;;;5012166;28;20238;-67
2022/06/25 02:25:09;;;;;;;8.30;7.60;;;16.50;99.90;;;;;;5030701;28;20266;-67
2022/06/25 02:27:35;;;;;;;8.30;7.60;;;16.50;99.90;;;;;;5023906;28;20208;-67
2022/06/25 02:30:00;;;;;;;7.97;7.27;;;16.50;99.90;;;;;;5011819;28;20271;-67
2022/06/25 02:32:26;;;;;;;13.80;7.03;;;16.50;99.90;;;;;;5017733;28;20544;-67
2022/06/25 02:34:52;;;;;;;11.30;7.77;;;16.40;99.90;;;;;;5029677;28;20179;-67
2022/06/25 02:37:18;;;;;;;7.87;7.17;;;16.40;99.90;;;;;;5029981;28;20196;-67
2022/06/25 02:39:43;;;;;;;10.60;7.97;;;16.40;99.90;;;;;;5020429;28;20309;-67
2022/06/25 02:42:09;;;;;;;7.57;6.80;;;16.50;99.90;;;;;;5031615;28;20172;-67
2022/06/25 02:44:34;;;;;;;8.33;7.43;;;16.40;99.90;;;;;;5031428;28;20171;-67
2022/06/25 02:47:00;;;;;;;8.27;7.67;;;16.50;99.90;;;;;;5030770;28;20265;-67
2022/06/25 02:49:26;;;;;;;8.03;7.30;;;16.50;99.90;;;;;;5012849;28;20191;-67
2022/06/25 02:51:51;;;;;;;8.43;7.57;;;16.40;99.90;;;;;;5011602;28;20196;-67
2022/06/25 02:54:17;;;;;;;8.27;7.47;;;16.40;99.90;;;;;;5029300;28;20381;-67
2022/06/25 02:59:27;;;;;;;12.10;7.63;;;16.40;99.90;;;;;;5012666;28;20195;-67
2022/06/25 03:01:55;;;;;;;8.80;7.80;;;16.30;99.90;;;;;;5011554;28;20283;-67
2022/06/25 03:04:22;;;;;;;7.90;7.00;;;16.30;99.90;;;;;;5027404;28;20209;-67
2022/06/25 03:06:47;;;;;;;8.43;7.60;;;16.20;99.90;;;;;;5027385;28;20184;-67
2022/06/25 03:09:13;;;;;;;14.67;7.73;;;16.30;99.90;;;;;;5011569;28;20196;-67
2022/06/25 03:11:39;;;;;;;8.97;7.23;;;16.20;99.90;;;;;;5011588;28;20228;-67
2022/06/25 03:14:04;;;;;;;13.10;7.37;;;16.20;99.90;;;;;;5030885;28;20174;-67
2022/06/25 03:16:31;;;;;;;12.33;8.20;;;16.20;99.90;;;;;;5031055;28;20176;-67
2022/06/25 03:18:57;;;;;;;7.60;6.90;;;16.10;99.90;;;;;;5011455;28;20180;-67
2022/06/25 03:21:23;;;;;;;8.40;7.60;;;16.10;99.90;;;;;;5017329;28;20539;-67
2022/06/25 03:23:49;;;;;;;13.00;8.63;;;16.10;99.90;;;;;;5030114;28;20266;-66
2022/06/25 03:26:14;;;;;;;9.33;8.50;;;16.10;99.90;;;;;;5030272;28;20176;-66
2022/06/25 03:28:40;;;;;;;10.07;9.10;;;16.00;99.90;;;;;;5015328;28;20606;-66
2022/06/25 03:31:06;;;;;;;10.40;8.17;;;16.00;99.90;;;;;;5017738;28;20191;-66
2022/06/25 03:33:31;;;;;;;9.33;8.03;;;16.00;99.90;;;;;;5034677;28;20167;-67
2022/06/25 03:35:57;;;;;;;10.83;9.03;;;16.10;99.90;;;;;;5021763;28;20206;-66
2022/06/25 03:38:23;;;;;;;10.73;8.23;;;16.10;99.90;;;;;;5014024;28;20176;-66
2022/06/25 03:40:48;;;;;;;11.30;8.50;;;16.10;99.90;;;;;;5025787;28;20203;-66
2022/06/25 03:43:14;;;;;;;13.27;8.97;;;16.20;99.90;;;;;;5034782;28;20711;-66
2022/06/25 03:45:39;;;;;;;13.43;9.77;;;16.20;99.90;;;;;;5025021;28;20665;-66
2022/06/25 03:48:05;;;;;;;9.53;8.73;;;16.20;99.90;;;;;;5014671;28;20668;-67
2022/06/25 03:50:33;;;;;;;11.53;9.80;;;16.30;99.90;;;;;;5021649;28;20230;-67
2022/06/25 03:52:59;;;;;;;12.37;9.83;;;16.30;99.90;;;;;;5033252;28;20551;-67
2022/06/25 03:55:24;;;;;;;15.47;10.30;;;16.30;99.90;;;;;;5026718;28;20168;-67
2022/06/25 03:57:50;;;;;;;12.50;9.87;;;16.40;99.90;;;;;;5014782;28;20176;-67
2022/06/25 04:00:15;;;;;;;12.47;9.60;;;16.40;99.90;;;;;;5018667;28;20199;-67
2022/06/25 04:02:41;;;;;;;11.00;9.90;;;16.40;99.90;;;;;;5032126;28;20403;-67
2022/06/25 04:05:07;;;;;;;9.97;9.00;;;16.40;99.90;;;;;;5014302;28;20180;-67
2022/06/25 04:07:32;;;;;;;11.07;10.00;;;16.50;99.90;;;;;;5014966;28;20250;-67
2022/06/25 04:09:58;;;;;;;12.67;10.67;;;16.50;99.90;;;;;;5034134;28;20266;-67
2022/06/25 04:12:23;;;;;;;13.33;9.73;;;16.50;99.90;;;;;;5034383;28;20241;-67
2022/06/25 04:14:49;;;;;;;11.73;9.63;;;16.50;99.90;;;;;;5015217;28;20255;-67
2022/06/25 04:17:15;;;;;;;12.67;8.60;;;16.50;99.90;;;;;;5014372;28;20510;-67
2022/06/25 04:19:40;;;;;;;10.13;9.20;;;16.50;99.90;;;;;;5030918;28;20179;-67
2022/06/25 04:22:10;;;;;;;9.27;8.27;;;16.60;99.90;;;;;;5034567;28;20546;-67
2022/06/25 04:24:40;;;;;;;14.47;8.73;;;16.60;99.90;;;;;;5017980;28;20169;-67
2022/06/25 04:27:07;;;;;;;15.00;8.63;;;16.80;99.90;;;;;;5020626;28;20247;-67
2022/06/25 04:29:33;;;;;;;10.93;8.77;;;17.00;99.90;;;;;;5033843;28;20168;-67
2022/06/25 04:31:58;;;;;;;9.40;8.43;;;17.20;99.90;;;;;;5021200;28;20541;-67
2022/06/25 04:34:24;;;;;;;11.40;8.57;;;17.40;99.90;;;;;;5014076;28;20172;-67
2022/06/25 04:36:51;;;;;;;8.20;6.80;;;17.60;99.90;;;;;;5024500;28;20179;-67
2022/06/25 04:39:17;;;;;;;10.57;7.50;;;17.80;99.90;;;;;;5033851;28;20548;-67
2022/06/25 04:41:43;;;;;;;8.37;6.93;;;18.10;99.90;;;;;;5023156;28;20202;-67
2022/06/25 04:44:09;;;;;;;8.50;7.10;;;18.30;99.90;;;;;;5013546;28;20214;-67
2022/06/25 04:46:35;;;;;;;11.70;7.07;;;18.60;99.90;;;;;;5019818;28;20207;-67
2022/06/25 04:49:00;;;;;;;6.53;5.30;;;18.80;99.90;;;;;;5032218;28;20722;-67
2022/06/25 04:51:26;;;;;;;10.97;5.40;;;19.00;99.90;;;;;;5031850;28;20187;-67
2022/06/25 04:53:55;;;;;;;5.57;5.17;;;19.20;99.90;;;;;;5033248;28;20175;-67
2022/06/25 04:56:29;;;;;;;7.97;5.67;;;19.40;99.90;;;;;;5028838;28;20172;-67
2022/06/25 04:58:55;;;;;;;6.07;5.20;;;19.50;99.90;;;;;;5016830;28;20187;-67
2022/06/25 05:01:21;;;;;;;6.13;5.70;;;19.70;99.90;;;;;;5033193;28;20195;-67
2022/06/25 05:03:47;;;;;;;10.40;6.53;;;19.80;99.90;;;;;;5029765;28;20278;-67
2022/06/25 05:06:14;;;;;;;7.50;6.23;;;20.00;99.90;;;;;;5012495;28;20363;-67
2022/06/25 05:08:40;;;;;;;8.27;6.07;;;20.20;99.90;;;;;;5013333;28;20208;-67
2022/06/25 05:11:05;;;;;;;7.27;6.00;;;20.30;99.90;;;;;;5033028;28;20195;-67
2022/06/25 05:13:31;;;;;;;7.10;6.47;;;20.50;99.90;;;;;;5032891;28;20540;-67
2022/06/25 05:15:57;;;;;;;7.17;6.47;;;20.60;99.90;;;;;;5014199;28;20741;-67
2022/06/25 05:18:23;;;;;;;13.40;6.77;;;20.70;99.90;;;;;;5013387;28;20191;-67
2022/06/25 05:20:48;;;;;;;7.13;5.90;;;20.60;99.90;;;;;;5028312;28;20211;-67
2022/06/25 05:23:14;;;;;;;6.07;5.50;;;20.70;99.90;;;;;;5032967;28;20175;-67
2022/06/25 05:25:41;;;;;;;6.80;6.10;;;20.70;99.90;;;;;;5017550;28;20180;-67
2022/06/25 05:28:07;;;;;;;6.10;5.60;;;20.70;99.90;;;;;;5012864;28;20192;-67
2022/06/25 05:30:33;;;;;;;6.53;6.03;;;20.70;99.90;;;;;;5026405;28;20199;-67
2022/06/25 05:32:59;;;;;;;7.00;5.57;;;20.70;99.90;;;;;;5021057;28;20570;-67
2022/06/25 05:35:24;;;;;;;10.10;6.40;;;20.70;99.90;;;;;;5012756;28;20179;-67
2022/06/25 05:37:50;;;;;;;7.03;5.80;;;20.70;99.90;;;;;;5022455;28;20176;-67
2022/06/25 05:40:16;;;;;;;6.13;5.73;;;20.70;99.90;;;;;;5015281;28;20279;-67
2022/06/25 05:42:42;;;;;;;5.93;5.47;;;20.90;99.90;;;;;;5020657;28;20176;-67
2022/06/25 05:45:08;;;;;;;7.37;6.87;;;21.10;99.90;;;;;;5032178;28;20167;-67
2022/06/25 05:47:33;;;;;;;7.90;7.23;;;21.30;99.90;;;;;;5024053;28;20192;-68
2022/06/25 05:49:59;;;;;;;10.83;9.90;;;21.60;99.90;;;;;;5012524;28;20195;-67
2022/06/25 05:52:25;;;;;;;6.57;5.13;;;21.80;99.90;;;;;;5016987;28;20257;-67
2022/06/25 05:54:50;;;;;;;4.90;4.50;;;22.00;99.90;;;;;;5032001;28;20275;-67
2022/06/25 05:57:16;;;;;;;4.83;4.43;;;22.20;99.90;;;;;;5029284;28;20234;-68
2022/06/25 05:59:41;;;;;;;4.90;4.50;;;22.40;99.90;;;;;;5027299;28;20176;-67
2022/06/25 06:02:07;;;;;;;5.10;4.57;;;22.50;99.90;;;;;;5031012;28;20163;-68
2022/06/25 06:04:33;;;;;;;5.73;4.80;;;22.60;99.90;;;;;;5031763;28;20171;-69
2022/06/25 06:07:00;;;;;;;5.63;4.95;;;22.80;99.90;;;;;;5029537;28;20179;-68
2022/06/25 06:09:27;;;;;;;6.90;4.60;;;23.00;99.90;;;;;;5012441;28;20227;-68
2022/06/25 06:11:54;;;;;;;6.53;4.47;;;23.40;99.90;;;;;;5010811;28;20192;-68
2022/06/25 06:14:21;;;;;;;5.40;4.88;;;23.60;99.90;;;;;;5028351;28;20591;-68
2022/06/25 06:16:46;;;;;;;5.38;5.07;;;23.70;99.90;;;;;;5031884;28;20171;-68
2022/06/25 06:19:12;;;;;;;5.05;4.13;;;23.80;99.90;;;;;;5015028;28;20237;-69
2022/06/25 06:21:37;;;;;;;4.45;4.10;;;23.90;99.90;;;;;;5011977;28;20208;-68
2022/06/25 06:24:03;;;;;;;4.65;4.30;;;24.00;99.90;;;;;;5026017;28;20229;-69
2022/06/25 06:26:29;;;;;;;4.20;3.88;;;24.20;99.90;;;;;;5025187;28;20176;-68
2022/06/25 06:28:54;;;;;;;4.00;3.70;;;24.40;99.90;;;;;;5011774;28;20195;-68
2022/06/25 06:31:20;;;;;;;4.78;4.30;;;24.60;99.90;;;;;;5021099;28;20234;-69
2022/06/25 06:33:46;;;;;;;4.00;3.72;;;24.80;99.90;;;;;;5031537;28;20656;-69
2022/06/25 06:36:12;;;;;;;4.13;3.75;;;25.00;99.90;;;;;;5022117;28;20187;-68
2022/06/25 06:38:38;;;;;;;3.35;3.15;;;25.30;99.90;;;;;;5012000;28;20191;-68
2022/06/25 06:41:04;;;;;;;5.00;4.05;;;25.60;99.90;;;;;;5014916;28;20200;-69
2022/06/25 06:43:30;;;;;;;3.97;3.63;;;25.70;99.90;;;;;;5019805;28;20183;-68
2022/06/25 06:45:55;;;;;;;4.15;3.85;;;26.00;99.90;;;;;;5011607;28;20184;-68
2022/06/25 06:48:21;;;;;;;4.43;3.05;;;26.30;99.90;;;;;;5011606;28;20200;-68
2022/06/25 06:50:47;;;;;;;4.55;4.18;;;26.50;99.90;;;;;;5010841;28;20200;-69
2022/06/25 06:53:12;;;;;;;3.80;3.50;;;26.70;99.90;;;;;;5011530;28;20176;-69
2022/06/25 06:55:38;;;;;;;5.88;3.47;;;26.80;99.90;;;;;;5011530;28;20215;-69
2022/06/25 06:58:03;;;;;;;3.33;3.13;;;26.90;99.90;;;;;;5011455;28;20723;-69
2022/06/25 07:00:29;;;;;;;6.57;3.60;;;27.00;99.90;;;;;;5035000;28;20215;-69
2022/06/25 07:02:55;;;;;;;3.58;3.28;;;27.10;99.90;;;;;;5045343;28;20179;-68
2022/06/25 07:05:21;;;;;;;3.72;3.42;;;27.20;99.90;;;;;;5034931;28;20232;-68
2022/06/25 07:07:47;;;;;;;6.53;3.42;;;27.30;99.90;;;;;;5034024;28;20207;-69
2022/06/25 07:10:13;;;;;;;3.72;3.53;;;27.30;99.90;;;;;;5016822;28;20207;-69
2022/06/25 07:12:39;;;;;;;4.03;3.65;;;27.30;99.90;;;;;;5014366;28;20180;-68
2022/06/25 07:15:05;;;;;;;3.42;3.13;;;27.00;99.90;;;;;;5016141;28;20249;-68
2022/06/25 07:17:31;;;;;;;4.00;3.70;;;27.00;99.90;;;;;;5015310;28;20176;-68
2022/06/25 07:19:58;;;;;;;5.93;3.55;;;27.10;99.90;;;;;;5028456;28;20688;-68
2022/06/25 07:22:23;;;;;;;4.90;3.50;;;27.20;99.90;;;;;;5035165;28;20309;-68
2022/06/25 07:24:51;;;;;;;3.60;3.35;;;27.30;99.90;;;;;;5021307;28;20651;-68
2022/06/25 07:27:17;;;;;;;3.63;3.30;;;27.40;99.90;;;;;;5022773;28;20561;-69
2022/06/25 07:29:43;;;;;;;3.67;3.38;;;27.60;99.90;;;;;;5032333;28;20171;-68
2022/06/25 07:32:09;;;;;;;3.60;3.30;;;27.70;99.90;;;;;;5013587;28;20183;-68
2022/06/25 07:34:35;;;;;;;3.97;3.08;;;28.00;99.90;;;;;;5020233;28;20175;-68
2022/06/25 07:37:01;;;;;;;3.72;3.45;;;28.50;99.90;;;;;;5034799;28;20174;-68
2022/06/25 07:39:27;;;;;;;3.65;3.30;;;28.80;99.90;;;;;;5033469;28;20262;-69
2022/06/25 07:41:53;;;;;;;3.75;3.45;;;29.00;99.90;;;;;;5015584;28;20255;-68
2022/06/25 07:44:19;;;;;;;3.38;2.90;;;29.10;99.90;;;;;;5014426;28;20230;-68
2022/06/25 07:46:45;;;;;;;3.80;3.08;;;29.50;99.90;;;;;;5014976;28;20199;-68
2022/06/25 07:49:10;;;;;;;3.63;2.80;;;30.00;99.90;;;;;;5013533;28;20211;-68
2022/06/25 07:54:21;;;;;;;3.28;2.95;;;31.10;99.90;;;;;;5014617;28;20613;-68
2022/06/25 07:56:46;;;;;;;5.85;2.97;;;31.20;99.90;;;;;;5014808;28;20180;-68
2022/06/25 07:59:13;;;;;;;3.72;3.35;;;30.30;99.90;;;;;;5013955;28;20272;-67
2022/06/25 08:01:38;;;;;;;6.72;3.40;;;29.20;99.90;;;;;;5014586;28;20192;-68
2022/06/25 08:04:04;;;;;;;3.88;3.58;;;28.40;99.90;;;;;;5014078;28;20704;-68
2022/06/25 08:06:34;;;;;;;5.65;3.65;;;27.90;99.90;;;;;;5015872;28;20589;-70
2022/06/25 08:09:01;;;;;;;3.70;3.45;;;27.90;99.90;;;;;;5017804;28;20208;-69
2022/06/25 08:11:27;;;;;;;4.38;3.05;;;28.20;99.90;;;;;;5024844;28;20187;-69
2022/06/25 08:13:52;;;;;;;4.03;3.05;;;28.90;99.90;;;;;;5036398;28;20171;-69
2022/06/25 08:16:18;;;;;;;3.33;3.03;;;29.60;99.90;;;;;;5036780;28;20313;-69
2022/06/25 08:18:44;;;;;;;2.70;2.50;;;30.20;99.90;;;;;;5019228;28;20183;-69
2022/06/25 08:21:09;;;;;;;5.07;3.13;;;30.30;99.90;;;;;;5037525;28;20298;-68
2022/06/25 08:23:35;;;;;;;4.50;2.80;;;30.60;99.90;;;;;;5036773;28;20171;-68
2022/06/25 08:26:01;;;;;;;3.65;3.35;;;30.80;99.90;;;;;;5036675;28;20710;-66
2022/06/25 08:28:26;;;;;;;4.03;2.65;;;30.90;99.90;;;;;;5035678;28;20207;-68
2022/06/25 08:30:52;;;;;;;2.88;2.67;;;31.20;99.90;;;;;;5037162;28;20206;-68
2022/06/25 08:33:18;;;;;;;3.08;2.88;;;31.30;99.90;;;;;;5038402;28;20645;-69
2022/06/25 08:35:43;;;;;;;3.60;3.13;;;31.40;99.90;;;;;;5036629;28;20172;-68
2022/06/25 08:38:09;;;;;;;3.30;2.88;;;31.20;99.90;;;;;;5035333;28;20183;-69
2022/06/25 08:40:34;;;;;;;4.82;2.97;;;31.20;99.90;;;;;;5036874;28;20191;-70
2022/06/25 08:43:00;;;;;;;4.50;2.85;;;31.10;99.90;;;;;;5033536;28;20199;-69
2022/06/25 08:45:26;;;;;;;3.00;2.70;;;30.90;99.90;;;;;;5035638;28;20535;-70
2022/06/25 08:47:53;;;;;;;2.95;2.75;;;30.50;99.90;;;;;;5034910;28;20673;-69
2022/06/25 08:50:22;;;;;;;4.68;3.35;;;29.70;99.90;;;;;;5034990;28;20204;-69
2022/06/25 08:52:50;;;;;;;5.25;3.30;;;29.30;99.90;;;;;;5037505;28;20176;-68
2022/06/25 08:55:25;;;;;;;3.08;2.88;;;28.90;99.90;;;;;;5021164;28;20211;-67
2022/06/25 08:57:58;;;;;;;3.30;3.00;;;28.10;99.90;;;;;;5036557;28;20278;-69
2022/06/25 09:00:25;;;;;;;3.47;3.20;;;27.60;99.90;;;;;;5035479;28;20284;-69
2022/06/25 09:02:51;;;;;;;4.40;3.35;;;27.80;99.90;;;;;;5052946;28;20186;-69
2022/06/25 09:05:23;;;;;;;4.93;3.00;;;28.10;99.90;;;;;;5051698;28;20213;-69
2022/06/25 09:07:54;;;;;;;3.25;3.03;;;28.70;99.90;;;;;;5032710;28;20202;-69
2022/06/25 09:10:22;;;;;;;4.15;2.85;;;29.40;99.90;;;;;;5035018;28;20638;-68
2022/06/25 09:12:55;;;;;;;3.35;3.08;;;29.70;99.90;;;;;;5017726;28;20207;-69
2022/06/25 09:15:30;;;;;;;2.75;2.60;;;29.30;99.90;;;;;;5028582;28;20189;-70
2022/06/25 09:17:56;;;;;;;3.45;3.08;;;29.10;99.90;;;;;;5037338;28;20232;-69
2022/06/25 09:20:22;;;;;;;3.17;2.97;;;29.20;99.90;;;;;;5025432;28;20224;-70
2022/06/25 09:23:00;;;;;;;5.35;3.22;;;29.40;99.90;;;;;;5017322;28;20180;-69
2022/06/25 09:25:31;;;;;;;2.78;2.65;;;29.70;99.90;;;;;;5036060;28;20691;-69
2022/06/25 09:27:57;;;;;;;2.92;2.72;;;29.80;99.90;;;;;;5032035;28;20192;-68
2022/06/25 09:30:29;;;;;;;5.43;3.20;;;29.80;99.90;;;;;;5016483;28;20195;-68
2022/06/25 09:33:00;;;;;;;4.78;3.15;;;29.50;99.90;;;;;;5019434;28;20180;-69
2022/06/25 09:35:43;;;;;;;3.20;2.90;;;29.30;99.90;;;;;;5035386;28;20172;-69
2022/06/25 09:38:10;;;;;;;2.97;2.78;;;29.40;99.90;;;;;;5031414;28;20623;-69
2022/06/25 09:40:37;;;;;;;5.03;3.00;;;29.60;99.90;;;;;;5016283;28;20204;-70
2022/06/25 09:43:14;;;;;;;3.15;2.95;;;29.70;99.90;;;;;;5023148;28;20205;-69
2022/06/25 09:45:45;;;;;;;3.55;3.25;;;29.50;99.90;;;;;;5035919;28;20575;-68
2022/06/25 09:48:24;;;;;;;4.22;3.85;;;29.30;99.90;;;;;;5028729;28;20203;-68
2022/06/25 09:51:08;;;;;;;5.32;3.38;;;28.90;99.90;;;;;;5017055;28;20199;-69
2022/06/25 09:53:35;;;;;;;3.63;3.33;;;28.40;99.90;;;;;;5027106;28;20175;-66
2022/06/25 09:56:02;;;;;;;3.70;2.85;;;28.40;99.90;;;;;;5034100;28;20178;-69
2022/06/25 09:58:31;;;;;;;3.67;3.35;;;28.80;99.90;;;;;;5024794;28;20187;-69
2022/06/25 10:00:57;;;;;;;5.93;2.92;;;29.20;99.90;;;;;;5019336;28;20267;-69
2022/06/25 10:03:25;;;;;;;2.88;2.67;;;29.80;99.90;;;;;;5025052;28;20203;-68
2022/06/25 10:05:53;;;;;;;5.78;3.00;;;30.30;99.90;;;;;;5035720;28;20241;-68
2022/06/25 10:08:21;;;;;;;3.63;3.10;;;30.90;99.90;;;;;;5033960;28;20203;-70
2022/06/25 10:10:50;;;;;;;2.75;2.55;;;31.10;99.90;;;;;;5037237;28;20219;-70
2022/06/25 10:13:16;;;;;;;4.13;2.72;;;31.40;99.90;;;;;;5030743;28;20271;-70
2022/06/25 10:15:42;;;;;;;3.70;2.83;;;32.10;99.90;;;;;;5015188;28;20625;-70
2022/06/25 10:18:11;;;;;;;3.33;2.97;;;32.30;99.90;;;;;;5020346;28;20176;-71
2022/06/25 10:20:41;;;;;;;3.67;3.35;;;32.10;99.90;;;;;;5055338;23;20610;-67
2022/06/25 10:23:09;;;;;;;3.47;3.00;;;31.60;99.90;;;;;;5031510;28;20172;-65
2022/06/25 10:25:36;;;;;;;5.25;3.20;;;31.10;99.90;;;;;;5031472;28;20230;-66
2022/06/25 10:28:13;;;;;;;7.22;3.40;;;31.00;99.90;;;;;;5031571;28;20210;-67
2022/06/25 10:30:45;;;;;;;3.40;3.10;;;31.20;99.90;;;;;;5037665;28;20192;-66
2022/06/25 10:33:13;;;;;;;3.25;2.95;;;31.30;99.90;;;;;;5046380;28;20185;-67
2022/06/25 10:35:40;;;;;;;3.55;3.35;;;31.10;99.90;;;;;;5030896;28;20171;-67
2022/06/25 10:38:12;;;;;;;5.45;2.83;;;31.10;99.90;;;;;;5031985;28;20179;-69
2022/06/25 10:40:58;;;;;;;4.28;2.90;;;31.30;99.90;;;;;;5031763;28;20202;-67
2022/06/25 10:43:42;;;;;;;3.20;2.90;;;31.80;99.90;;;;;;5042530;28;20505;-68
2022/06/25 10:46:31;;;;;;;3.88;2.75;;;32.20;99.90;;;;;;5031399;28;20195;-68
2022/06/25 10:49:08;;;;;;;3.80;2.50;;;32.50;99.90;;;;;;5031562;28;20231;-67
2022/06/25 10:51:44;;;;;;;2.90;2.70;;;32.40;99.90;;;;;;5035416;28;20186;-66
2022/06/25 10:54:35;;;;;;;3.42;3.13;;;32.40;99.90;;;;;;5050947;28;20173;-68
2022/06/25 10:57:04;;;;;;;3.00;2.80;;;32.70;99.90;;;;;;5033931;28;20187;-67
2022/06/25 10:59:36;;;;;;;4.63;2.50;;;32.70;99.90;;;;;;5031476;28;20214;-68
2022/06/25 11:02:08;;;;;;;3.00;2.60;;;32.70;99.90;;;;;;5037884;28;20635;-68
2022/06/25 11:04:34;;;;;;;2.83;2.63;;;33.00;99.90;;;;;;5050567;28;20169;-67
2022/06/25 11:07:15;;;;;;;4.03;2.60;;;33.30;99.90;;;;;;5043702;28;20190;-67
2022/06/25 11:09:54;;;;;;;2.95;2.70;;;33.20;99.90;;;;;;5031576;28;20191;-68
2022/06/25 11:12:19;;;;;;;4.00;3.10;;;32.30;99.90;;;;;;5038623;28;20202;-67
2022/06/25 11:15:05;;;;;;;4.60;2.80;;;31.70;99.90;;;;;;5051249;28;20163;-68
2022/06/25 11:17:31;;;;;;;4.70;3.08;;;31.20;99.90;;;;;;5042857;28;20179;-67
2022/06/25 11:20:05;;;;;;;2.90;2.70;;;30.80;99.90;;;;;;5030445;28;20582;-67
2022/06/25 11:22:31;;;;;;;3.00;2.80;;;30.70;99.90;;;;;;5039037;28;20255;-68
2022/06/25 11:30:26;;;;;;;3.60;3.35;;;30.30;99.90;;;;;;5050611;28;20205;-68
2022/06/25 11:32:53;;;;;;;4.43;3.45;;;30.10;99.90;;;;;;5041320;28;20184;-67
2022/06/25 11:35:19;;;;;;;3.40;3.20;;;29.70;99.90;;;;;;5030699;28;20207;-67
2022/06/25 11:37:44;;;;;;;3.40;3.10;;;29.60;99.90;;;;;;5038773;28;20609;-67
2022/06/25 11:40:15;;;;;;;3.33;3.13;;;29.60;99.90;;;;;;5050675;28;20202;-66
2022/06/25 11:42:41;;;;;;;3.95;3.65;;;29.40;99.90;;;;;;5044329;28;20175;-67
2022/06/25 11:45:08;;;;;;;3.88;3.45;;;29.50;99.90;;;;;;5031835;28;20175;-67
2022/06/25 11:47:35;;;;;;;3.67;3.38;;;29.50;99.90;;;;;;5039662;28;20183;-68
2022/06/25 11:50:07;;;;;;;3.63;3.40;;;29.30;99.90;;;;;;5054763;28;20171;-67
2022/06/25 11:52:33;;;;;;;3.83;3.53;;;29.30;99.90;;;;;;5050759;28;20175;-67
2022/06/25 11:54:58;;;;;;;3.88;3.30;;;29.30;99.90;;;;;;5034712;28;20209;-65
2022/06/25 11:57:27;;;;;;;3.72;3.00;;;29.30;99.90;;;;;;5055159;28;20258;-68
2022/06/25 11:59:54;;;;;;;3.45;3.15;;;29.10;99.90;;;;;;5054883;28;20586;-68
2022/06/25 12:02:21;;;;;;;5.35;3.35;;;29.00;99.90;;;;;;5035571;28;20226;-68
2022/06/25 12:04:49;;;;;;;3.53;3.20;;;28.80;99.90;;;;;;5034438;28;20720;-69
2022/06/25 12:07:20;;;;;;;3.50;3.25;;;28.70;99.90;;;;;;5051853;28;20189;-68
2022/06/25 12:09:47;;;;;;;4.18;3.50;;;28.60;99.90;;;;;;5054776;28;20179;-68
2022/06/25 12:12:13;;;;;;;5.22;4.18;;;28.50;99.90;;;;;;5037303;28;20196;-66
2022/06/25 12:14:40;;;;;;;3.75;3.53;;;28.40;99.90;;;;;;5034157;28;20167;-67
2022/06/25 12:17:06;;;;;;;5.25;3.65;;;28.30;99.90;;;;;;5048975;28;20182;-66
2022/06/25 12:19:45;;;;;;;3.67;3.45;;;28.10;99.90;;;;;;5054289;28;20543;-67
2022/06/25 12:22:27;;;;;;;4.95;3.47;;;28.10;99.90;;;;;;5038060;28;20687;-68
2022/06/25 12:24:56;;;;;;;3.15;2.95;;;28.10;99.90;;;;;;5034819;28;20187;-66
2022/06/25 12:27:22;;;;;;;4.32;3.70;;;28.30;99.90;;;;;;5033815;28;20225;-67
2022/06/25 12:29:50;;;;;;;3.42;3.22;;;28.30;99.90;;;;;;5048096;28;20217;-67
2022/06/25 12:32:16;;;;;;;3.72;3.40;;;28.40;99.90;;;;;;5053596;28;20264;-68
2022/06/25 12:34:49;;;;;;;3.80;3.50;;;28.50;99.90;;;;;;5040475;28;20176;-65
2022/06/25 12:37:29;;;;;;;3.90;3.40;;;28.70;99.90;;;;;;5033735;28;20179;-66
2022/06/25 12:39:57;;;;;;;3.78;3.03;;;28.70;99.90;;;;;;5047301;28;20682;-68
2022/06/25 12:42:24;;;;;;;3.30;3.10;;;28.70;99.90;;;;;;5047105;28;20637;-68
2022/06/25 12:44:49;;;;;;;3.90;3.40;;;28.60;99.90;;;;;;5033429;28;20229;-66
2022/06/25 12:47:16;;;;;;;3.85;3.55;;;28.60;99.90;;;;;;5037995;28;20639;-67
2022/06/25 12:49:53;;;;;;;3.30;3.10;;;28.60;99.90;;;;;;5053490;28;20595;-66
2022/06/25 12:52:23;;;;;;;3.72;3.50;;;28.60;99.90;;;;;;5042712;28;20250;-65
2022/06/25 12:54:56;;;;;;;3.63;3.42;;;28.60;99.90;;;;;;5033374;28;20168;-66
2022/06/25 12:57:22;;;;;;;8.90;3.42;;;28.50;99.90;;;;;;5042492;28;20187;-66